createdAt,value
2018-09-25T00:01:23.217Z,4.30
2018-09-25T00:03:57.820Z,5.67
2018-09-25T00:06:32.006Z,4.03
2018-09-25T00:09:06.140Z,4.17
2018-09-25T00:11:40.483Z,1.43
2018-09-25T00:14:14.838Z,5.13
2018-09-25T00:16:48.997Z,1.40
2018-09-25T00:19:23.358Z,5.57
2018-09-25T00:21:57.554Z,4.03
2018-09-25T00:24:31.793Z,2.50
2018-09-25T00:27:05.975Z,3.30
2018-09-25T00:29:40.177Z,4.77
2018-09-25T00:32:14.503Z,5.10
2018-09-25T00:34:48.911Z,4.23
2018-09-25T00:37:23.145Z,3.87
2018-09-25T00:39:57.402Z,3.13
2018-09-25T00:42:31.819Z,3.93
2018-09-25T00:45:06.049Z,3.87
2018-09-25T00:47:40.231Z,6.40
2018-09-25T00:50:14.918Z,2.83
2018-09-25T00:52:48.982Z,3.27
2018-09-25T00:55:23.230Z,5.00
2018-09-25T00:57:57.393Z,5.83
2018-09-25T01:00:31.619Z,5.07
2018-09-25T01:03:05.807Z,5.97
2018-09-25T01:05:40.372Z,2.40
2018-09-25T01:08:14.560Z,4.07
2018-09-25T01:10:49.380Z,3.57
2018-09-25T01:13:23.660Z,3.03
2018-09-25T01:15:57.974Z,5.57
2018-09-25T01:18:32.236Z,4.03
2018-09-25T01:21:06.743Z,2.43
2018-09-25T01:23:40.879Z,3.77
2018-09-25T01:26:15.153Z,5.33
2018-09-25T01:28:49.291Z,4.00
2018-09-25T01:31:23.397Z,2.67
2018-09-25T01:33:57.511Z,2.70
2018-09-25T01:36:31.939Z,3.00
2018-09-25T01:39:06.027Z,5.60
2018-09-25T01:41:40.157Z,5.43
2018-09-25T01:44:14.892Z,6.03
2018-09-25T01:46:49.172Z,6.10
2018-09-25T01:49:23.450Z,4.30
2018-09-25T01:51:58.043Z,3.03
2018-09-25T01:54:32.170Z,3.33
2018-09-25T01:57:06.479Z,4.83
2018-09-25T01:59:40.737Z,2.90
2018-09-25T02:02:14.882Z,5.23
2018-09-25T02:04:49.194Z,3.10
2018-09-25T02:07:23.539Z,4.03
2018-09-25T02:09:57.687Z,3.70
2018-09-25T02:12:32.005Z,4.97
2018-09-25T02:15:06.313Z,1.70
2018-09-25T02:17:40.695Z,3.60
2018-09-25T02:20:15.059Z,4.50
2018-09-25T02:22:49.809Z,3.23
2018-09-25T02:25:24.061Z,5.17
2018-09-25T02:27:58.233Z,4.07
2018-09-25T02:30:32.368Z,2.47
2018-09-25T02:33:06.619Z,4.37
2018-09-25T02:35:40.726Z,2.83
2018-09-25T02:38:15.669Z,5.43
2018-09-25T02:40:49.713Z,5.70
2018-09-25T02:43:23.831Z,4.37
2018-09-25T02:45:58.341Z,2.20
2018-09-25T02:48:32.593Z,4.60
2018-09-25T02:51:06.717Z,2.63
2018-09-25T02:53:41.329Z,4.23
2018-09-25T02:56:15.324Z,2.53
2018-09-25T02:58:49.407Z,3.43
2018-09-25T03:01:23.575Z,4.13
2018-09-25T03:03:57.845Z,2.97
2018-09-25T03:06:31.962Z,9.00
2018-09-25T03:09:06.473Z,4.77
2018-09-25T03:11:40.626Z,5.20
2018-09-25T03:14:15.011Z,3.17
2018-09-25T03:16:49.114Z,5.87
2018-09-25T03:19:23.278Z,4.83
2018-09-25T03:21:57.360Z,6.63
2018-09-25T03:24:31.957Z,3.67
2018-09-25T03:27:06.189Z,3.23
2018-09-25T03:29:40.359Z,6.77
2018-09-25T03:32:14.511Z,6.37
2018-09-25T03:34:48.565Z,6.13
2018-09-25T03:37:22.558Z,7.03
2018-09-25T03:39:57.210Z,4.20
2018-09-25T03:42:31.444Z,9.20
2018-09-25T03:45:05.763Z,4.43
2018-09-25T03:47:40.436Z,4.80
2018-09-25T03:50:14.695Z,5.43
2018-09-25T03:52:49.011Z,6.00
2018-09-25T03:55:23.280Z,4.00
2018-09-25T03:57:57.323Z,5.30
2018-09-25T04:00:31.477Z,4.62
2018-09-25T04:03:05.656Z,4.07
2018-09-25T04:05:39.798Z,4.73
2018-09-25T04:08:14.011Z,6.77
2018-09-25T04:10:48.752Z,9.47
2018-09-25T04:13:22.874Z,2.87
2018-09-25T04:15:56.937Z,4.77
2018-09-25T04:18:31.060Z,3.70
2018-09-25T04:21:05.373Z,5.03
2018-09-25T04:23:39.606Z,4.00
2018-09-25T04:26:14.226Z,4.87
2018-09-25T04:28:48.391Z,5.57
2018-09-25T04:31:22.489Z,4.23
2018-09-25T04:33:56.639Z,6.20
2018-09-25T04:36:30.951Z,4.40
2018-09-25T04:39:05.077Z,6.73
2018-09-25T04:41:40.181Z,7.73
2018-09-25T04:44:14.489Z,6.63
2018-09-25T04:46:48.693Z,5.07
2018-09-25T04:49:23.214Z,4.33
2018-09-25T04:51:57.483Z,4.77
2018-09-25T04:54:31.601Z,4.40
2018-09-25T04:57:06.158Z,3.87
2018-09-25T04:59:40.267Z,6.00
2018-09-25T05:02:14.526Z,5.93
2018-09-25T05:04:48.644Z,3.80
2018-09-25T05:07:22.801Z,4.57
2018-09-25T05:09:57.000Z,4.97
2018-09-25T05:12:31.595Z,3.37
2018-09-25T05:15:05.745Z,6.40
2018-09-25T05:17:40.007Z,6.87
2018-09-25T05:20:14.195Z,10.73
2018-09-25T05:22:48.430Z,4.77
2018-09-25T05:25:22.707Z,6.83
2018-09-25T05:27:57.252Z,5.07
2018-09-25T05:30:31.393Z,6.37
2018-09-25T05:33:05.575Z,6.50
2018-09-25T05:35:39.750Z,5.07
2018-09-25T05:38:14.018Z,8.40
2018-09-25T05:40:48.226Z,8.20
2018-09-25T05:43:22.893Z,8.63
2018-09-25T05:45:57.227Z,6.17
2018-09-25T05:48:31.485Z,6.83
2018-09-25T05:51:06.366Z,11.57
2018-09-25T05:53:40.595Z,5.87
2018-09-25T05:56:14.708Z,6.33
2018-09-25T05:58:49.325Z,3.43
2018-09-25T06:01:24.394Z,6.30
2018-09-25T06:03:58.686Z,5.53
2018-09-25T06:06:33.028Z,7.60
2018-09-25T06:09:07.174Z,6.97
2018-09-25T06:11:41.278Z,6.23
2018-09-25T06:14:16.083Z,9.50
2018-09-25T06:16:50.236Z,4.63
2018-09-25T06:19:24.638Z,3.97
2018-09-25T06:21:58.888Z,6.17
2018-09-25T06:24:33.183Z,5.67
2018-09-25T06:27:07.351Z,5.70
2018-09-25T06:29:42.064Z,7.23
2018-09-25T06:32:16.323Z,4.73
2018-09-25T06:34:50.490Z,9.70
2018-09-25T06:37:24.686Z,7.07
2018-09-25T06:39:58.806Z,8.00
2018-09-25T06:42:33.124Z,5.07
2018-09-25T06:45:07.773Z,6.13
2018-09-25T06:47:42.018Z,6.77
2018-09-25T06:50:16.218Z,7.30
2018-09-25T06:52:50.882Z,5.53
2018-09-25T06:55:26.042Z,5.57
2018-09-25T06:58:00.199Z,7.87
2018-09-25T07:00:43.098Z,9.47
2018-09-25T07:03:17.193Z,7.37
2018-09-25T07:05:51.310Z,5.53
2018-09-25T07:08:25.535Z,3.87
2018-09-25T07:10:59.673Z,7.47
2018-09-25T07:13:33.797Z,6.90
2018-09-25T07:16:08.410Z,5.83
2018-09-25T07:18:42.553Z,5.63
2018-09-25T07:21:16.549Z,6.37
2018-09-25T07:23:50.795Z,6.23
2018-09-25T07:26:25.103Z,5.50
2018-09-25T07:28:59.431Z,8.97
2018-09-25T07:31:33.995Z,6.97
2018-09-25T07:34:08.311Z,5.83
2018-09-25T07:36:42.519Z,3.67
2018-09-25T07:39:16.749Z,5.43
2018-09-25T07:41:50.730Z,5.27
2018-09-25T07:44:24.994Z,5.20
2018-09-25T07:46:59.703Z,7.83
2018-09-25T07:49:33.863Z,4.70
2018-09-25T07:52:08.058Z,8.07
2018-09-25T07:54:42.631Z,4.53
2018-09-25T07:57:16.946Z,7.87
2018-09-25T07:59:51.262Z,4.57
2018-09-25T08:02:25.817Z,5.57
2018-09-25T08:05:00.103Z,5.57
2018-09-25T08:07:34.258Z,7.33
2018-09-25T08:10:08.454Z,8.20
2018-09-25T08:12:42.674Z,5.57
2018-09-25T08:15:16.837Z,9.97
2018-09-25T08:17:51.663Z,5.97
2018-09-25T08:20:25.863Z,7.13
2018-09-25T08:23:00.085Z,8.90
2018-09-25T08:25:34.277Z,5.67
2018-09-25T08:28:08.428Z,7.00
2018-09-25T08:30:42.567Z,10.43
2018-09-25T08:33:17.134Z,7.90
2018-09-25T08:35:51.340Z,6.33
2018-09-25T08:38:25.646Z,6.50
2018-09-25T08:40:59.934Z,7.00
2018-09-25T08:43:34.074Z,6.53
2018-09-25T08:46:08.270Z,7.50
2018-09-25T08:48:43.131Z,5.90
2018-09-25T08:51:17.408Z,6.80
2018-09-25T08:53:51.696Z,7.73
2018-09-25T08:56:26.258Z,7.27
2018-09-25T08:59:00.402Z,4.83
2018-09-25T09:01:34.503Z,4.70
2018-09-25T09:04:09.041Z,4.37
2018-09-25T09:06:43.226Z,4.25
2018-09-25T09:09:17.372Z,3.73
2018-09-25T09:11:51.570Z,6.93
2018-09-25T09:14:25.819Z,4.50
2018-09-25T09:17:00.076Z,4.45
2018-09-25T09:19:34.672Z,2.87
2018-09-25T09:22:09.033Z,5.45
2018-09-25T09:24:43.181Z,7.70
2018-09-25T09:27:17.415Z,4.23
2018-09-25T09:29:51.734Z,6.97
2018-09-25T09:32:25.906Z,3.67
2018-09-25T09:35:00.446Z,5.23
2018-09-25T09:37:34.563Z,1.67
2018-09-25T09:40:08.626Z,6.97
2018-09-25T09:42:42.779Z,3.33
2018-09-25T09:45:17.030Z,5.27
2018-09-25T09:47:51.350Z,3.20
2018-09-25T09:50:26.006Z,2.80
2018-09-25T09:53:00.193Z,3.27
2018-09-25T09:55:34.411Z,2.63
2018-09-25T09:58:09.199Z,1.93
2018-09-25T10:00:43.934Z,8.63
2018-09-25T10:03:18.073Z,5.03
2018-09-25T10:05:52.672Z,7.40
2018-09-25T10:08:26.835Z,3.87
2018-09-25T10:11:01.020Z,4.07
2018-09-25T10:13:35.249Z,3.63
2018-09-25T10:16:09.347Z,1.37
2018-09-25T10:18:43.610Z,2.33
2018-09-25T10:21:18.277Z,2.83
2018-09-25T10:23:52.569Z,4.47
2018-09-25T10:26:26.694Z,7.57
2018-09-25T10:29:00.798Z,4.00
2018-09-25T10:31:35.157Z,4.30
2018-09-25T10:34:09.324Z,3.63
2018-09-25T10:36:44.087Z,3.10
2018-09-25T10:39:18.243Z,6.90
2018-09-25T10:41:52.513Z,4.83
2018-09-25T10:44:26.659Z,3.40
2018-09-25T10:47:00.731Z,3.33
2018-09-25T10:49:35.019Z,4.43
2018-09-25T10:52:09.692Z,5.33
2018-09-25T10:54:43.900Z,4.10
2018-09-25T10:57:18.335Z,2.85
2018-09-25T10:59:52.884Z,3.50
2018-09-25T11:02:27.097Z,6.00
2018-09-25T11:05:01.162Z,4.23
2018-09-25T11:07:35.626Z,8.37
2018-09-25T11:10:09.819Z,6.60
2018-09-25T11:12:44.086Z,7.10
2018-09-25T11:15:18.325Z,3.57
2018-09-25T11:17:52.596Z,6.23
2018-09-25T11:20:26.711Z,2.67
2018-09-25T11:23:01.195Z,2.10
2018-09-25T11:25:35.466Z,4.37
2018-09-25T11:28:09.714Z,2.23
2018-09-25T11:30:43.850Z,4.83
2018-09-25T11:33:18.154Z,3.47
2018-09-25T11:35:52.181Z,4.20
2018-09-25T11:38:26.495Z,2.67
2018-09-25T11:41:00.784Z,3.27
2018-09-25T11:43:35.019Z,2.63
2018-09-25T11:46:09.228Z,4.17
2018-09-25T11:48:43.567Z,2.97
2018-09-25T11:51:17.739Z,3.90
2018-09-25T11:53:52.127Z,3.20
2018-09-25T11:56:26.565Z,4.70
2018-09-25T11:59:00.716Z,2.87
2018-09-25T12:01:35.405Z,2.87
2018-09-25T12:04:09.749Z,2.50
2018-09-25T12:06:43.967Z,3.97
2018-09-25T12:09:18.623Z,4.37
2018-09-25T12:11:52.862Z,2.07
2018-09-25T12:14:27.126Z,3.13
2018-09-25T12:17:01.493Z,1.83
2018-09-25T12:19:35.698Z,3.27
2018-09-25T12:22:09.938Z,3.13
2018-09-25T12:24:44.801Z,2.23
2018-09-25T12:27:18.826Z,2.00
2018-09-25T12:29:52.945Z,1.43
2018-09-25T12:32:27.284Z,4.13
2018-09-25T12:35:01.412Z,1.00
2018-09-25T12:37:35.528Z,2.67
2018-09-25T12:40:10.028Z,2.80
2018-09-25T12:42:44.274Z,3.03
2018-09-25T12:45:18.621Z,2.03
2018-09-25T12:47:52.967Z,2.03
2018-09-25T12:50:27.271Z,2.90
2018-09-25T12:53:01.490Z,1.20
2018-09-25T12:55:36.154Z,2.70
2018-09-25T12:58:10.257Z,2.43
2018-09-25T13:00:44.381Z,2.93
2018-09-25T13:03:18.829Z,4.63
2018-09-25T13:05:53.035Z,4.43
2018-09-25T13:08:27.235Z,2.87
2018-09-25T13:11:01.996Z,2.77
2018-09-25T13:13:36.230Z,7.53
2018-09-25T13:16:10.378Z,1.70
2018-09-25T13:18:44.623Z,1.83
2018-09-25T13:21:18.848Z,2.53
2018-09-25T13:23:53.050Z,3.13
2018-09-25T13:26:27.762Z,4.03
2018-09-25T13:29:01.891Z,1.63
2018-09-25T13:31:36.106Z,2.10
2018-09-25T13:34:10.383Z,2.67
2018-09-25T13:36:44.545Z,2.03
2018-09-25T13:39:18.769Z,3.60
2018-09-25T13:41:53.220Z,3.47
2018-09-25T13:44:27.422Z,2.43
2018-09-25T13:47:01.719Z,3.97
2018-09-25T13:49:35.830Z,4.13
2018-09-25T13:52:09.866Z,2.60
2018-09-25T13:54:43.991Z,2.13
2018-09-25T13:57:18.561Z,2.43
2018-09-25T13:59:52.826Z,1.33
2018-09-25T14:02:27.250Z,2.13
2018-09-25T14:05:01.865Z,2.60
2018-09-25T14:07:36.054Z,11.97
2018-09-25T14:10:10.379Z,2.27
2018-09-25T14:12:45.256Z,3.43
2018-09-25T14:15:19.535Z,2.37
2018-09-25T14:17:53.659Z,1.60
2018-09-25T14:20:27.959Z,2.40
2018-09-25T14:23:02.066Z,1.67
2018-09-25T14:25:36.222Z,2.00
2018-09-25T14:28:11.159Z,6.53
2018-09-25T14:30:45.266Z,1.93
2018-09-25T14:33:19.698Z,6.93
2018-09-25T14:35:53.904Z,1.50
2018-09-25T14:38:28.169Z,2.83
2018-09-25T14:41:02.433Z,3.07
2018-09-25T14:43:37.083Z,2.57
2018-09-25T14:46:11.355Z,2.47
2018-09-25T14:48:45.514Z,1.20
2018-09-25T14:51:19.593Z,3.20
2018-09-25T14:53:53.892Z,2.83
2018-09-25T14:56:28.214Z,2.47
2018-09-25T14:59:02.626Z,4.63
2018-09-25T15:01:36.933Z,2.63
2018-09-25T15:04:10.983Z,2.30
2018-09-25T15:06:45.619Z,2.93
2018-09-25T15:09:19.782Z,2.73
2018-09-25T15:11:53.917Z,1.87
2018-09-25T15:14:28.535Z,1.83
2018-09-25T15:17:02.687Z,2.47
2018-09-25T15:19:36.933Z,1.30
2018-09-25T15:22:11.373Z,2.53
2018-09-25T15:24:45.156Z,1.33
2018-09-25T15:27:19.298Z,1.80
2018-09-25T15:29:53.602Z,2.13
2018-09-25T15:32:27.588Z,5.20
2018-09-25T15:35:01.780Z,2.20
2018-09-25T15:37:35.717Z,4.87
2018-09-25T15:40:10.295Z,5.73
2018-09-25T15:42:44.515Z,2.30
2018-09-25T15:45:19.263Z,3.83
2018-09-25T15:47:53.454Z,5.03
2018-09-25T15:50:27.765Z,1.63
2018-09-25T15:53:02.011Z,3.77
2018-09-25T15:55:36.306Z,2.60
2018-09-25T15:58:10.675Z,2.47
2018-09-25T16:00:45.528Z,1.70
2018-09-25T16:03:19.836Z,1.43
2018-09-25T16:05:54.049Z,2.57
2018-09-25T16:08:28.547Z,3.00
2018-09-25T16:11:02.526Z,1.57
2018-09-25T16:13:36.738Z,1.90
2018-09-25T16:16:11.277Z,3.30
2018-09-25T16:18:45.588Z,2.03
2018-09-25T16:21:19.727Z,1.73
2018-09-25T16:23:53.848Z,3.37
2018-09-25T16:26:28.089Z,1.73
2018-09-25T16:29:02.188Z,1.63
2018-09-25T16:31:36.839Z,1.87
2018-09-25T16:34:11.051Z,2.97
2018-09-25T16:36:45.221Z,3.77
2018-09-25T16:39:19.605Z,1.87
2018-09-25T16:41:54.690Z,5.00
2018-09-25T16:44:29.014Z,1.60
2018-09-25T16:47:10.222Z,2.73
2018-09-25T16:49:44.349Z,3.50
2018-09-25T16:52:18.463Z,2.33
2018-09-25T16:54:52.702Z,6.20
2018-09-25T16:57:27.071Z,2.67
2018-09-25T17:00:01.272Z,1.60
2018-09-25T17:02:35.943Z,2.97
2018-09-25T17:05:10.066Z,2.83
2018-09-25T17:07:44.170Z,4.37
2018-09-25T17:10:19.122Z,4.90
2018-09-25T17:12:53.426Z,2.80
2018-09-25T17:15:27.768Z,1.30
2018-09-25T17:18:02.336Z,4.53
2018-09-25T17:20:36.625Z,3.07
2018-09-25T17:23:10.805Z,5.20
2018-09-25T17:25:44.972Z,5.33
2018-09-25T17:28:19.050Z,7.40
2018-09-25T17:30:53.124Z,3.40
2018-09-25T17:33:27.731Z,3.77
2018-09-25T17:36:01.752Z,3.00
2018-09-25T17:38:35.896Z,4.57
2018-09-25T17:41:10.077Z,2.43
2018-09-25T17:43:44.265Z,4.60
2018-09-25T17:46:18.525Z,2.20
2018-09-25T17:48:53.027Z,2.10
2018-09-25T17:51:27.239Z,2.70
2018-09-25T17:54:01.464Z,4.10
2018-09-25T17:56:35.446Z,2.63
2018-09-25T17:59:09.557Z,2.97
2018-09-25T18:01:43.663Z,2.57
2018-09-25T18:04:18.735Z,2.43
2018-09-25T18:06:52.949Z,3.90
2018-09-25T18:09:27.305Z,2.03
2018-09-25T18:12:01.998Z,2.80
2018-09-25T18:14:36.106Z,3.47
2018-09-25T18:17:10.389Z,4.07
2018-09-25T18:19:44.852Z,7.03
2018-09-25T18:22:18.999Z,7.63
2018-09-25T18:24:53.158Z,4.00
2018-09-25T18:27:27.327Z,5.57
2018-09-25T18:30:01.532Z,4.00
2018-09-25T18:32:35.905Z,3.67
2018-09-25T18:35:10.434Z,5.87
2018-09-25T18:37:44.522Z,4.47
2018-09-25T18:40:18.838Z,4.00
2018-09-25T18:42:53.043Z,7.37
2018-09-25T18:45:27.319Z,7.97
2018-09-25T18:48:01.399Z,5.70
2018-09-25T18:50:36.098Z,4.60
2018-09-25T18:53:10.243Z,8.33
2018-09-25T18:55:44.576Z,8.27
2018-09-25T18:58:18.879Z,6.00
2018-09-25T19:00:53.077Z,6.13
2018-09-25T19:03:27.409Z,9.93
2018-09-25T19:06:01.891Z,5.67
2018-09-25T19:08:36.080Z,6.00
2018-09-25T19:11:10.260Z,6.27
2018-09-25T19:13:44.934Z,7.63
2018-09-25T19:16:19.270Z,7.43
2018-09-25T19:18:53.455Z,4.93
2018-09-25T19:21:28.019Z,6.87
2018-09-25T19:24:02.227Z,6.43
2018-09-25T19:26:36.443Z,8.87
2018-09-25T19:29:10.504Z,10.70
2018-09-25T19:31:44.695Z,9.47
2018-09-25T19:34:19.011Z,8.57
2018-09-25T19:37:00.549Z,9.77
2018-09-25T19:39:34.577Z,10.67
2018-09-25T19:42:08.807Z,13.13
2018-09-25T19:44:43.114Z,8.67
2018-09-25T19:47:17.207Z,13.40
2018-09-25T19:49:51.315Z,13.77
2018-09-25T19:52:25.843Z,10.60
2018-09-25T19:54:59.993Z,9.67
2018-09-25T19:57:34.114Z,8.67
2018-09-25T20:00:08.210Z,9.30
2018-09-25T20:02:42.586Z,10.97
2018-09-25T20:05:16.817Z,7.97
2018-09-25T20:07:51.241Z,6.97
2018-09-25T20:10:25.296Z,8.10
2018-09-25T20:12:59.540Z,10.70
2018-09-25T20:15:33.940Z,8.63
2018-09-25T20:18:08.145Z,9.43
2018-09-25T20:20:42.322Z,10.53
2018-09-25T20:23:16.851Z,10.17
2018-09-25T20:25:50.961Z,9.00
2018-09-25T20:28:25.123Z,9.27
2018-09-25T20:30:59.269Z,13.77
2018-09-25T20:33:33.469Z,9.00
2018-09-25T20:36:07.645Z,7.17
2018-09-25T20:38:42.342Z,10.97
2018-09-25T20:41:16.511Z,6.13
2018-09-25T20:43:50.726Z,7.07
2018-09-25T20:46:24.690Z,6.93
2018-09-25T20:48:58.858Z,9.63
2018-09-25T20:51:33.125Z,10.23
2018-09-25T20:54:07.633Z,10.77
2018-09-25T20:56:41.854Z,7.00
2018-09-25T20:59:15.940Z,7.10
2018-09-25T21:01:50.086Z,8.90
2018-09-25T21:04:24.394Z,5.57
2018-09-25T21:06:58.738Z,8.07
2018-09-25T21:09:33.650Z,6.50
2018-09-25T21:12:07.768Z,9.47
2018-09-25T21:14:42.035Z,8.70
2018-09-25T21:17:16.642Z,7.97
2018-09-25T21:19:50.793Z,8.67
2018-09-25T21:22:25.109Z,6.43
2018-09-25T21:24:59.647Z,7.93
2018-09-25T21:27:33.790Z,9.73
2018-09-25T21:30:07.835Z,7.13
2018-09-25T21:32:41.979Z,9.60
2018-09-25T21:35:16.156Z,9.63
2018-09-25T21:37:50.380Z,7.00
2018-09-25T21:40:24.945Z,9.93
2018-09-25T21:42:59.008Z,6.67
2018-09-25T21:45:33.383Z,7.70
2018-09-25T21:48:07.533Z,8.87
2018-09-25T21:50:41.733Z,8.63
2018-09-25T21:53:15.876Z,8.63
2018-09-25T21:55:50.484Z,8.53
2018-09-25T21:58:24.650Z,7.73
2018-09-25T22:00:59.022Z,9.27
2018-09-25T22:03:33.327Z,7.67
2018-09-25T22:06:07.417Z,8.63
2018-09-25T22:08:41.530Z,7.50
2018-09-25T22:11:16.259Z,8.73
2018-09-25T22:13:50.274Z,7.37
2018-09-25T22:16:24.558Z,8.07
2018-09-25T22:18:59.426Z,8.90
2018-09-25T22:21:33.459Z,7.60
2018-09-25T22:24:07.662Z,8.83
2018-09-25T22:26:42.269Z,9.47
2018-09-25T22:29:16.362Z,9.63
2018-09-25T22:31:50.497Z,8.27
2018-09-25T22:34:24.690Z,8.93
2018-09-25T22:36:58.930Z,9.53
2018-09-25T22:39:33.002Z,8.37
2018-09-25T22:42:07.776Z,9.10
2018-09-25T22:44:41.928Z,10.77
2018-09-25T22:47:16.287Z,6.97
2018-09-25T22:49:50.454Z,8.13
2018-09-25T22:52:24.637Z,6.73
2018-09-25T22:54:58.833Z,7.40
2018-09-25T22:57:33.434Z,9.03
2018-09-25T23:00:07.573Z,7.10
2018-09-25T23:02:41.858Z,7.97
2018-09-25T23:05:16.137Z,4.93
2018-09-25T23:07:50.363Z,6.17
2018-09-25T23:10:24.378Z,7.53
2018-09-25T23:12:58.977Z,4.77
2018-09-25T23:15:33.105Z,5.80
2018-09-25T23:18:07.330Z,6.83
2018-09-25T23:20:41.909Z,6.33
2018-09-25T23:23:16.026Z,3.53
2018-09-25T23:25:50.162Z,10.53
2018-09-25T23:28:24.778Z,4.00
2018-09-25T23:30:59.014Z,7.13
2018-09-25T23:33:33.316Z,4.27
2018-09-25T23:36:07.513Z,4.10
2018-09-25T23:38:41.722Z,4.37
2018-09-25T23:41:16.659Z,3.77
2018-09-25T23:43:50.385Z,4.10
2018-09-25T23:46:23.423Z,7.30
2018-09-25T23:49:23.714Z,5.23
2018-09-25T23:52:04.680Z,4.53
2018-09-25T23:54:39.461Z,5.57
2018-09-25T23:57:14.545Z,5.07
2018-09-25T23:59:58.084Z,6.37
